createdAt,value
2023-02-10T00:03:08.952Z,23.070234113712374
2023-02-10T00:09:32.648Z,26.264214046822744
2023-02-10T00:15:54.268Z,24.525083612040135
2023-02-10T00:22:16.733Z,25.705685618729095
2023-02-10T00:29:39.790Z,25.297658862876254
2023-02-10T00:36:01.843Z,26.2809364548495
2023-02-10T00:42:23.703Z,22.234113712374583
2023-02-10T00:51:06.745Z,26.05016722408027
2023-02-10T00:57:29.729Z,26.13377926421405
2023-02-10T01:09:25.558Z,27.82608695652174
2023-02-10T01:15:47.873Z,23.62876254180602
2023-02-10T01:22:10.341Z,26.08695652173913
2023-02-10T01:28:35.421Z,26.096989966555185
2023-02-10T01:38:53.900Z,23.67558528428094
2023-02-10T01:47:18.961Z,25.307692307692307
2023-02-10T01:53:43.789Z,23.93645484949833
2023-02-10T02:00:05.960Z,23.60535117056856
2023-02-10T02:09:34.344Z,26.401337792642142
2023-02-10T02:15:57.026Z,20.471571906354516
2023-02-10T02:22:19.747Z,24.8561872909699
2023-02-10T02:29:33.518Z,23.39799331103679
2023-02-10T02:37:49.496Z,22.93979933110368
2023-02-10T02:44:15.141Z,22.040133779264213
2023-02-10T02:50:38.656Z,24.795986622073578
2023-02-10T03:01:28.493Z,23.989966555183948
2023-02-10T03:08:35.862Z,24.648829431438127
2023-02-10T03:25:01.221Z,23.60200668896321
2023-02-10T03:31:21.675Z,21.816053511705686
2023-02-10T03:37:42.817Z,26.240802675585286
2023-02-10T03:44:22.944Z,28.023411371237458
2023-02-10T03:54:57.847Z,27.220735785953178
2023-02-10T04:02:05.090Z,27.842809364548494
2023-02-10T04:08:25.869Z,22.889632107023413
2023-02-10T04:14:48.098Z,25.25752508361204
2023-02-10T04:23:42.848Z,26.11371237458194
2023-02-10T04:33:48.680Z,20.441471571906355
2023-02-10T04:40:10.051Z,22.11705685618729
2023-02-10T04:46:32.740Z,24.14715719063545
2023-02-10T04:55:00.023Z,24.618729096989966
2023-02-10T05:09:19.874Z,22.220735785953178
2023-02-10T05:36:37.076Z,20.612040133779264
2023-02-10T05:49:37.752Z,23.14715719063545
2023-02-10T05:55:58.681Z,22.040133779264213
2023-02-10T06:06:50.769Z,24.190635451505017
2023-02-10T06:13:12.889Z,23.505016722408026
2023-02-10T06:31:58.474Z,20.76923076923077
2023-02-10T06:38:20.109Z,20.839464882943144
2023-02-10T06:47:53.963Z,21.729096989966557
2023-02-10T06:58:37.774Z,21.7190635451505
2023-02-10T07:04:58.769Z,20.622073578595316
2023-02-10T07:11:22.935Z,22.05685618729097
2023-02-10T07:20:45.930Z,21.247491638795985
2023-02-10T07:41:06.194Z,19.812709030100333
2023-02-10T07:47:29.964Z,21.555183946488295
2023-02-10T07:53:53.936Z,20.127090301003346
2023-02-10T08:08:52.479Z,19.94314381270903
2023-02-10T08:19:46.599Z,21.013377926421406
2023-02-10T08:26:11.062Z,20.94314381270903
2023-02-10T08:33:44.642Z,19.08361204013378
2023-02-10T08:40:11.899Z,18.294314381270905
2023-02-10T08:46:38.271Z,19.464882943143813
2023-02-10T09:04:00.909Z,14.695652173913043
2023-02-10T09:10:25.966Z,17.05351170568562
2023-02-10T09:16:51.073Z,17.806020066889634
2023-02-10T09:26:25.718Z,17.896321070234112
2023-02-10T09:32:51.848Z,16.50836120401338
2023-02-10T10:01:29.908Z,14.304347826086957
2023-02-10T10:10:51.139Z,16.65886287625418
2023-02-10T10:21:21.077Z,20.494983277591974
2023-02-10T10:27:45.228Z,18.334448160535118
2023-02-10T10:34:10.160Z,15.190635451505017
2023-02-10T10:49:03.132Z,15.277591973244148
2023-02-10T10:55:26.621Z,15.14046822742475
2023-02-10T11:04:15.577Z,15.775919732441471
2023-02-10T11:10:41.451Z,17.65551839464883
2023-02-10T11:17:37.278Z,14.394648829431437
2023-02-10T11:24:02.714Z,16.40468227424749
2023-02-10T11:30:27.884Z,16.468227424749163
2023-02-10T11:36:53.410Z,15.341137123745819
2023-02-10T11:43:19.058Z,16.471571906354516
2023-02-10T11:53:57.547Z,15.822742474916389
2023-02-10T12:00:22.246Z,16.02006688963211
2023-02-10T12:06:47.194Z,16.976588628762542
2023-02-10T12:13:12.047Z,20.438127090301002
2023-02-10T12:25:43.319Z,15.949832775919733
2023-02-10T12:32:08.154Z,18.51839464882943
2023-02-10T12:38:32.354Z,18.40802675585284
2023-02-10T12:54:48.243Z,20.612040133779264
2023-02-10T13:01:11.249Z,20.96655518394649
2023-02-10T13:17:14.840Z,20.240802675585286
2023-02-10T13:24:00.622Z,23.53846153846154
2023-02-10T13:35:01.344Z,22.210702341137125
2023-02-10T13:41:24.409Z,21.588628762541806
2023-02-10T13:53:39.220Z,23.7190635451505
2023-02-10T14:01:08.593Z,22.82608695652174
2023-02-10T14:07:33.164Z,26.585284280936456
2023-02-10T14:13:56.793Z,22.070234113712374
2023-02-10T14:21:43.535Z,18.989966555183948
2023-02-10T14:28:07.995Z,21.62876254180602
2023-02-10T14:44:42.325Z,19.25752508361204
2023-02-10T14:51:07.196Z,17.301003344481604
2023-02-10T14:57:32.301Z,17.093645484949832
2023-02-10T15:03:57.162Z,16.14715719063545
2023-02-10T15:20:29.767Z,12.341137123745819
2023-02-10T15:26:55.733Z,11.993311036789297
2023-02-10T15:36:32.468Z,12.852842809364548
2023-02-10T15:42:57.658Z,14.284280936454849
2023-02-10T15:49:33.624Z,12.341137123745819
2023-02-10T15:58:33.847Z,12.020066889632107
2023-02-10T16:07:46.755Z,12.909698996655518
2023-02-10T16:14:13.070Z,10.33779264214047
2023-02-10T16:24:54.133Z,12.74581939799331
2023-02-10T16:31:18.353Z,9.464882943143813
2023-02-10T16:37:43.063Z,10.491638795986622
2023-02-10T16:44:05.284Z,10.62541806020067
2023-02-10T16:50:27.870Z,13.749163879598662
2023-02-10T16:56:49.818Z,12.434782608695652
2023-02-10T17:03:11.016Z,11.521739130434783
2023-02-10T17:11:13.940Z,10.167224080267559
2023-02-10T17:17:37.852Z,11.74581939799331
2023-02-10T17:30:04.479Z,12.214046822742475
2023-02-10T17:45:14.861Z,12.74247491638796
2023-02-10T17:51:37.677Z,16.14715719063545
2023-02-10T18:03:00.234Z,18.608695652173914
2023-02-10T18:09:21.729Z,21.702341137123746
2023-02-10T18:15:43.061Z,21.010033444816052
2023-02-10T18:22:04.741Z,25.51839464882943
2023-02-10T18:28:28.796Z,22.217391304347824
2023-02-10T18:39:18.621Z,24.193979933110366
2023-02-10T18:45:39.875Z,22.45819397993311
2023-02-10T19:00:47.948Z,25.816053511705686
2023-02-10T19:07:09.571Z,28.434782608695652
2023-02-10T19:16:50.198Z,32.15384615384615
2023-02-10T19:23:12.178Z,28.849498327759196
2023-02-10T19:29:35.438Z,26.839464882943144
2023-02-10T19:35:57.441Z,30.474916387959865
2023-02-10T19:42:20.174Z,32.10033444816054
2023-02-10T19:59:33.243Z,35.408026755852845
2023-02-10T20:09:47.379Z,34.986622073578594
2023-02-10T20:16:12.839Z,38.11371237458194
2023-02-10T20:22:37.421Z,36.98327759197324
2023-02-10T20:37:24.321Z,42.18394648829432
2023-02-10T20:43:48.340Z,43.7324414715719
2023-02-10T20:50:09.304Z,44.23076923076923
2023-02-10T20:56:48.295Z,40.24414715719063
2023-02-10T21:03:13.503Z,47.240802675585286
2023-02-10T21:09:38.400Z,43.869565217391305
2023-02-10T21:16:05.881Z,41.77257525083612
2023-02-10T21:22:32.244Z,43.357859531772576
2023-02-10T21:28:57.117Z,49.87290969899666
2023-02-10T21:41:23.520Z,41.68896321070234
2023-02-10T21:47:48.371Z,44.2943143812709
2023-02-10T21:54:11.478Z,45.0
2023-02-10T22:00:35.448Z,43.93311036789298
2023-02-10T22:10:11.736Z,41.792642140468224
2023-02-10T22:16:35.450Z,41.46488294314381
2023-02-10T22:22:59.168Z,38.22408026755853
2023-02-10T22:29:21.669Z,41.32107023411371
2023-02-10T22:35:47.007Z,40.89966555183946
2023-02-10T22:42:10.343Z,39.5819397993311
2023-02-10T22:48:56.098Z,37.25418060200669
2023-02-10T22:55:18.165Z,39.66555183946488
2023-02-10T23:01:41.843Z,34.78929765886288
2023-02-10T23:08:03.497Z,34.83946488294314
2023-02-10T23:18:17.245Z,33.16053511705686
2023-02-10T23:26:10.809Z,35.03010033444816
2023-02-10T23:33:08.321Z,32.53511705685619
2023-02-10T23:41:50.595Z,30.889632107023413
2023-02-10T23:48:14.693Z,37.474916387959865
2023-02-10T23:54:36.725Z,35.03344481605351
